sensor_id;sensor_type;location;lat;lon;timestamp;temperature;humidity
59556;DHT22;45374;52.746;6.304;2023-02-20T00:00:00;5.50;99.90
59556;DHT22;45374;52.746;6.304;2023-02-20T00:02:26;5.60;99.90
59556;DHT22;45374;52.746;6.304;2023-02-20T00:04:51;5.60;99.90
59556;DHT22;45374;52.746;6.304;2023-02-20T00:07:17;5.60;99.90
59556;DHT22;45374;52.746;6.304;2023-02-20T00:09:43;5.60;99.90
59556;DHT22;45374;52.746;6.304;2023-02-20T00:12:08;5.60;99.90
59556;DHT22;45374;52.746;6.304;2023-02-20T00:14:34;5.60;99.90
59556;DHT22;45374;52.746;6.304;2023-02-20T00:16:59;5.60;99.90
59556;DHT22;45374;52.746;6.304;2023-02-20T00:19:25;5.60;99.90
59556;DHT22;45374;52.746;6.304;2023-02-20T00:21:51;5.70;99.90
59556;DHT22;45374;52.746;6.304;2023-02-20T00:24:17;5.70;99.90
59556;DHT22;45374;52.746;6.304;2023-02-20T00:26:48;5.60;99.90
59556;DHT22;45374;52.746;6.304;2023-02-20T00:29:16;5.70;99.90
59556;DHT22;45374;52.746;6.304;2023-02-20T00:31:41;5.70;99.90
59556;DHT22;45374;52.746;6.304;2023-02-20T00:34:07;5.60;99.90
59556;DHT22;45374;52.746;6.304;2023-02-20T00:36:33;5.70;99.90
59556;DHT22;45374;52.746;6.304;2023-02-20T00:38:58;5.70;99.90
59556;DHT22;45374;52.746;6.304;2023-02-20T00:41:24;5.80;99.90
59556;DHT22;45374;52.746;6.304;2023-02-20T00:43:50;5.70;99.90
59556;DHT22;45374;52.746;6.304;2023-02-20T00:46:16;5.80;99.90
59556;DHT22;45374;52.746;6.304;2023-02-20T00:48:42;5.80;99.90
59556;DHT22;45374;52.746;6.304;2023-02-20T00:51:07;5.80;99.90
59556;DHT22;45374;52.746;6.304;2023-02-20T00:53:33;5.80;99.90
59556;DHT22;45374;52.746;6.304;2023-02-20T00:55:59;5.80;99.90
59556;DHT22;45374;52.746;6.304;2023-02-20T00:58:24;5.80;99.90
59556;DHT22;45374;52.746;6.304;2023-02-20T01:00:50;5.90;99.90
59556;DHT22;45374;52.746;6.304;2023-02-20T01:03:15;5.90;99.90
59556;DHT22;45374;52.746;6.304;2023-02-20T01:05:41;5.80;99.90
59556;DHT22;45374;52.746;6.304;2023-02-20T01:08:07;5.90;99.90
59556;DHT22;45374;52.746;6.304;2023-02-20T01:10:32;5.90;99.90
59556;DHT22;45374;52.746;6.304;2023-02-20T01:12:58;5.80;99.90
59556;DHT22;45374;52.746;6.304;2023-02-20T01:15:23;5.80;99.90
59556;DHT22;45374;52.746;6.304;2023-02-20T01:17:49;5.70;99.90
59556;DHT22;45374;52.746;6.304;2023-02-20T01:20:14;5.70;99.90
59556;DHT22;45374;52.746;6.304;2023-02-20T01:22:40;5.70;99.90
59556;DHT22;45374;52.746;6.304;2023-02-20T01:25:06;5.70;99.90
59556;DHT22;45374;52.746;6.304;2023-02-20T01:27:32;5.80;99.90
59556;DHT22;45374;52.746;6.304;2023-02-20T01:29:57;5.70;99.90
59556;DHT22;45374;52.746;6.304;2023-02-20T01:32:23;5.80;99.90
59556;DHT22;45374;52.746;6.304;2023-02-20T01:34:49;5.70;99.90
59556;DHT22;45374;52.746;6.304;2023-02-20T01:37:14;5.80;99.90
59556;DHT22;45374;52.746;6.304;2023-02-20T01:39:40;5.70;99.90
59556;DHT22;45374;52.746;6.304;2023-02-20T01:42:17;5.80;99.90
59556;DHT22;45374;52.746;6.304;2023-02-20T01:44:43;5.80;99.90
59556;DHT22;45374;52.746;6.304;2023-02-20T01:47:14;5.80;99.90
59556;DHT22;45374;52.746;6.304;2023-02-20T01:49:56;5.90;99.90
59556;DHT22;45374;52.746;6.304;2023-02-20T01:52:27;5.80;99.90
59556;DHT22;45374;52.746;6.304;2023-02-20T01:54:58;5.90;99.90
59556;DHT22;45374;52.746;6.304;2023-02-20T01:57:28;6.00;99.90
59556;DHT22;45374;52.746;6.304;2023-02-20T01:59:58;6.00;99.90
59556;DHT22;45374;52.746;6.304;2023-02-20T02:02:27;6.00;99.90
59556;DHT22;45374;52.746;6.304;2023-02-20T02:04:55;5.90;99.90
59556;DHT22;45374;52.746;6.304;2023-02-20T02:07:20;5.90;99.90
59556;DHT22;45374;52.746;6.304;2023-02-20T02:10:00;5.90;99.90
59556;DHT22;45374;52.746;6.304;2023-02-20T02:12:27;6.00;99.90
59556;DHT22;45374;52.746;6.304;2023-02-20T02:14:53;6.00;99.90
59556;DHT22;45374;52.746;6.304;2023-02-20T02:39:49;5.90;99.90
59556;DHT22;45374;52.746;6.304;2023-02-20T02:42:40;6.00;99.90
59556;DHT22;45374;52.746;6.304;2023-02-20T02:48:02;5.90;99.90
59556;DHT22;45374;52.746;6.304;2023-02-20T02:50:38;6.00;99.90
59556;DHT22;45374;52.746;6.304;2023-02-20T02:53:07;5.90;99.90
59556;DHT22;45374;52.746;6.304;2023-02-20T02:55:33;6.00;99.90
59556;DHT22;45374;52.746;6.304;2023-02-20T02:58:00;6.00;99.90
59556;DHT22;45374;52.746;6.304;2023-02-20T03:00:33;6.00;99.90
59556;DHT22;45374;52.746;6.304;2023-02-20T03:03:15;6.00;99.90
59556;DHT22;45374;52.746;6.304;2023-02-20T03:08:22;5.90;99.90
59556;DHT22;45374;52.746;6.304;2023-02-20T03:10:58;6.00;99.90
59556;DHT22;45374;52.746;6.304;2023-02-20T03:13:28;6.00;99.90
59556;DHT22;45374;52.746;6.304;2023-02-20T03:16:16;5.90;99.90
59556;DHT22;45374;52.746;6.304;2023-02-20T03:18:44;6.00;99.90
59556;DHT22;45374;52.746;6.304;2023-02-20T03:21:14;6.10;99.90
59556;DHT22;45374;52.746;6.304;2023-02-20T03:23:44;6.00;99.90
59556;DHT22;45374;52.746;6.304;2023-02-20T03:26:15;5.90;99.90
59556;DHT22;45374;52.746;6.304;2023-02-20T03:28:47;5.90;99.90
59556;DHT22;45374;52.746;6.304;2023-02-20T03:31:21;5.90;99.90
59556;DHT22;45374;52.746;6.304;2023-02-20T03:34:13;5.90;99.90
59556;DHT22;45374;52.746;6.304;2023-02-20T03:37:14;5.90;99.90
59556;DHT22;45374;52.746;6.304;2023-02-20T03:40:04;5.80;99.90
59556;DHT22;45374;52.746;6.304;2023-02-20T03:42:54;5.80;99.90
59556;DHT22;45374;52.746;6.304;2023-02-20T03:45:41;5.80;99.90
59556;DHT22;45374;52.746;6.304;2023-02-20T03:48:18;5.80;99.90
59556;DHT22;45374;52.746;6.304;2023-02-20T03:50:45;5.70;99.90
59556;DHT22;45374;52.746;6.304;2023-02-20T03:53:30;5.90;99.90
59556;DHT22;45374;52.746;6.304;2023-02-20T03:55:59;5.80;99.90
59556;DHT22;45374;52.746;6.304;2023-02-20T03:58:27;5.90;99.90
59556;DHT22;45374;52.746;6.304;2023-02-20T04:00:57;5.90;99.90
59556;DHT22;45374;52.746;6.304;2023-02-20T04:03:27;5.90;99.90
59556;DHT22;45374;52.746;6.304;2023-02-20T04:05:56;6.00;99.90
59556;DHT22;45374;52.746;6.304;2023-02-20T04:08:29;6.20;99.90
59556;DHT22;45374;52.746;6.304;2023-02-20T04:11:24;6.10;99.90
59556;DHT22;45374;52.746;6.304;2023-02-20T04:13:52;6.20;99.90
59556;DHT22;45374;52.746;6.304;2023-02-20T04:16:19;6.30;99.90
59556;DHT22;45374;52.746;6.304;2023-02-20T04:18:46;6.40;99.90
59556;DHT22;45374;52.746;6.304;2023-02-20T04:21:29;6.50;99.90
59556;DHT22;45374;52.746;6.304;2023-02-20T04:24:54;6.60;99.90
59556;DHT22;45374;52.746;6.304;2023-02-20T04:26:52;6.70;99.90
59556;DHT22;45374;52.746;6.304;2023-02-20T04:29:19;6.80;99.90
59556;DHT22;45374;52.746;6.304;2023-02-20T04:31:45;6.90;99.90
59556;DHT22;45374;52.746;6.304;2023-02-20T04:34:11;6.80;99.90
59556;DHT22;45374;52.746;6.304;2023-02-20T04:36:36;6.90;99.90
59556;DHT22;45374;52.746;6.304;2023-02-20T04:39:02;7.00;99.90
59556;DHT22;45374;52.746;6.304;2023-02-20T04:41:28;7.00;99.90
59556;DHT22;45374;52.746;6.304;2023-02-20T04:43:53;7.00;99.90
59556;DHT22;45374;52.746;6.304;2023-02-20T04:46:37;7.10;99.90
59556;DHT22;45374;52.746;6.304;2023-02-20T04:49:03;7.10;99.90
59556;DHT22;45374;52.746;6.304;2023-02-20T04:51:28;7.10;99.90
59556;DHT22;45374;52.746;6.304;2023-02-20T04:53:54;7.20;99.90
59556;DHT22;45374;52.746;6.304;2023-02-20T04:56:19;7.30;99.90
59556;DHT22;45374;52.746;6.304;2023-02-20T04:58:46;7.20;99.90
59556;DHT22;45374;52.746;6.304;2023-02-20T05:01:11;7.20;99.90
59556;DHT22;45374;52.746;6.304;2023-02-20T05:03:37;7.20;99.90
59556;DHT22;45374;52.746;6.304;2023-02-20T05:06:03;7.30;99.90
59556;DHT22;45374;52.746;6.304;2023-02-20T05:08:30;7.30;99.90
59556;DHT22;45374;52.746;6.304;2023-02-20T05:10:56;7.20;99.90
59556;DHT22;45374;52.746;6.304;2023-02-20T05:13:22;7.30;99.90
59556;DHT22;45374;52.746;6.304;2023-02-20T05:15:48;7.40;99.90
59556;DHT22;45374;52.746;6.304;2023-02-20T05:18:23;7.40;99.90
59556;DHT22;45374;52.746;6.304;2023-02-20T05:20:49;7.30;99.90
59556;DHT22;45374;52.746;6.304;2023-02-20T05:23:33;7.30;99.90
59556;DHT22;45374;52.746;6.304;2023-02-20T05:25:58;7.30;99.90
59556;DHT22;45374;52.746;6.304;2023-02-20T05:28:24;7.30;99.90
59556;DHT22;45374;52.746;6.304;2023-02-20T05:30:50;7.20;99.90
59556;DHT22;45374;52.746;6.304;2023-02-20T05:33:15;7.20;99.90
59556;DHT22;45374;52.746;6.304;2023-02-20T05:35:41;7.30;99.90
59556;DHT22;45374;52.746;6.304;2023-02-20T05:38:06;7.20;99.90
59556;DHT22;45374;52.746;6.304;2023-02-20T05:40:32;7.30;99.90
59556;DHT22;45374;52.746;6.304;2023-02-20T05:42:58;7.30;99.90
59556;DHT22;45374;52.746;6.304;2023-02-20T05:45:23;7.30;99.90
59556;DHT22;45374;52.746;6.304;2023-02-20T05:47:49;7.30;99.90
59556;DHT22;45374;52.746;6.304;2023-02-20T05:50:14;7.40;99.90
59556;DHT22;45374;52.746;6.304;2023-02-20T05:52:40;7.40;99.90
59556;DHT22;45374;52.746;6.304;2023-02-20T05:55:06;7.50;99.90
59556;DHT22;45374;52.746;6.304;2023-02-20T05:57:32;7.60;99.90
59556;DHT22;45374;52.746;6.304;2023-02-20T05:59:58;7.60;99.90
59556;DHT22;45374;52.746;6.304;2023-02-20T06:02:23;7.60;99.90
59556;DHT22;45374;52.746;6.304;2023-02-20T06:04:49;7.60;99.90
59556;DHT22;45374;52.746;6.304;2023-02-20T06:07:14;7.70;99.90
59556;DHT22;45374;52.746;6.304;2023-02-20T06:09:41;7.70;99.90
59556;DHT22;45374;52.746;6.304;2023-02-20T06:12:07;7.70;99.90
59556;DHT22;45374;52.746;6.304;2023-02-20T06:14:33;7.70;99.90
59556;DHT22;45374;52.746;6.304;2023-02-20T06:16:59;7.80;99.90
59556;DHT22;45374;52.746;6.304;2023-02-20T06:19:25;7.80;99.90
59556;DHT22;45374;52.746;6.304;2023-02-20T06:21:53;7.80;99.90
59556;DHT22;45374;52.746;6.304;2023-02-20T06:24:20;7.80;99.90
59556;DHT22;45374;52.746;6.304;2023-02-20T06:26:46;7.80;99.90
59556;DHT22;45374;52.746;6.304;2023-02-20T06:29:13;7.80;99.90
59556;DHT22;45374;52.746;6.304;2023-02-20T06:31:39;7.80;99.90
59556;DHT22;45374;52.746;6.304;2023-02-20T06:34:06;7.90;99.90
59556;DHT22;45374;52.746;6.304;2023-02-20T06:36:35;7.90;99.90
59556;DHT22;45374;52.746;6.304;2023-02-20T06:39:02;7.90;99.90
59556;DHT22;45374;52.746;6.304;2023-02-20T06:41:27;7.90;99.90
59556;DHT22;45374;52.746;6.304;2023-02-20T06:43:53;7.90;99.90
59556;DHT22;45374;52.746;6.304;2023-02-20T06:46:19;8.00;99.90
59556;DHT22;45374;52.746;6.304;2023-02-20T06:48:49;7.90;99.90
59556;DHT22;45374;52.746;6.304;2023-02-20T06:51:17;8.00;99.90
59556;DHT22;45374;52.746;6.304;2023-02-20T06:53:42;7.90;99.90
59556;DHT22;45374;52.746;6.304;2023-02-20T06:56:09;8.00;99.90
59556;DHT22;45374;52.746;6.304;2023-02-20T06:58:36;8.00;99.90
59556;DHT22;45374;52.746;6.304;2023-02-20T07:01:02;7.90;99.90
59556;DHT22;45374;52.746;6.304;2023-02-20T07:03:27;8.00;99.90
59556;DHT22;45374;52.746;6.304;2023-02-20T07:05:53;8.00;99.90
59556;DHT22;45374;52.746;6.304;2023-02-20T07:08:18;8.10;99.90
59556;DHT22;45374;52.746;6.304;2023-02-20T07:10:44;8.10;99.90
59556;DHT22;45374;52.746;6.304;2023-02-20T07:13:09;8.10;99.90
59556;DHT22;45374;52.746;6.304;2023-02-20T07:15:35;8.10;99.90
59556;DHT22;45374;52.746;6.304;2023-02-20T07:18:01;8.10;99.90
59556;DHT22;45374;52.746;6.304;2023-02-20T07:20:26;8.20;99.90
59556;DHT22;45374;52.746;6.304;2023-02-20T07:22:52;8.10;99.90
59556;DHT22;45374;52.746;6.304;2023-02-20T07:25:21;8.20;99.90
59556;DHT22;45374;52.746;6.304;2023-02-20T07:27:47;8.20;99.90
59556;DHT22;45374;52.746;6.304;2023-02-20T07:30:12;8.20;99.90
59556;DHT22;45374;52.746;6.304;2023-02-20T07:32:38;8.20;99.90
59556;DHT22;45374;52.746;6.304;2023-02-20T07:35:03;8.20;99.90
59556;DHT22;45374;52.746;6.304;2023-02-20T07:37:29;8.20;99.90
59556;DHT22;45374;52.746;6.304;2023-02-20T07:39:55;8.20;99.90
59556;DHT22;45374;52.746;6.304;2023-02-20T07:42:21;8.20;99.90
59556;DHT22;45374;52.746;6.304;2023-02-20T07:44:47;8.20;99.90
59556;DHT22;45374;52.746;6.304;2023-02-20T07:47:14;8.30;99.90
59556;DHT22;45374;52.746;6.304;2023-02-20T07:49:39;8.20;99.90
59556;DHT22;45374;52.746;6.304;2023-02-20T07:52:05;8.30;99.90
59556;DHT22;45374;52.746;6.304;2023-02-20T07:54:32;8.30;99.90
59556;DHT22;45374;52.746;6.304;2023-02-20T07:56:57;8.30;99.90
59556;DHT22;45374;52.746;6.304;2023-02-20T07:59:23;8.30;99.90
59556;DHT22;45374;52.746;6.304;2023-02-20T08:01:49;8.30;99.90
59556;DHT22;45374;52.746;6.304;2023-02-20T08:04:15;8.30;99.90
59556;DHT22;45374;52.746;6.304;2023-02-20T08:06:41;8.30;99.90
59556;DHT22;45374;52.746;6.304;2023-02-20T08:09:07;8.30;99.90
59556;DHT22;45374;52.746;6.304;2023-02-20T08:11:34;8.40;99.90
59556;DHT22;45374;52.746;6.304;2023-02-20T08:14:00;8.40;99.90
59556;DHT22;45374;52.746;6.304;2023-02-20T08:16:26;8.40;99.90
59556;DHT22;45374;52.746;6.304;2023-02-20T08:18:52;8.40;99.90
59556;DHT22;45374;52.746;6.304;2023-02-20T08:21:18;8.40;99.90
59556;DHT22;45374;52.746;6.304;2023-02-20T08:23:44;8.30;99.90
59556;DHT22;45374;52.746;6.304;2023-02-20T08:26:10;8.40;99.90
59556;DHT22;45374;52.746;6.304;2023-02-20T08:28:36;8.40;99.90
59556;DHT22;45374;52.746;6.304;2023-02-20T08:31:02;8.40;99.90
59556;DHT22;45374;52.746;6.304;2023-02-20T08:33:27;8.40;99.90
59556;DHT22;45374;52.746;6.304;2023-02-20T08:35:53;8.40;99.90
59556;DHT22;45374;52.746;6.304;2023-02-20T08:40:51;8.50;99.90
59556;DHT22;45374;52.746;6.304;2023-02-20T08:43:17;8.50;99.90
59556;DHT22;45374;52.746;6.304;2023-02-20T08:45:42;8.50;99.90
59556;DHT22;45374;52.746;6.304;2023-02-20T08:48:08;8.50;99.90
59556;DHT22;45374;52.746;6.304;2023-02-20T08:50:33;8.50;99.90
59556;DHT22;45374;52.746;6.304;2023-02-20T08:52:59;8.60;99.90
59556;DHT22;45374;52.746;6.304;2023-02-20T08:55:25;8.60;99.90
59556;DHT22;45374;52.746;6.304;2023-02-20T08:57:50;8.60;99.90
59556;DHT22;45374;52.746;6.304;2023-02-20T09:00:16;8.60;99.90
59556;DHT22;45374;52.746;6.304;2023-02-20T09:02:45;8.70;99.90
59556;DHT22;45374;52.746;6.304;2023-02-20T09:05:11;8.60;99.90
59556;DHT22;45374;52.746;6.304;2023-02-20T09:07:36;8.60;99.90
59556;DHT22;45374;52.746;6.304;2023-02-20T09:10:03;8.70;99.90
59556;DHT22;45374;52.746;6.304;2023-02-20T09:12:29;8.60;99.90
59556;DHT22;45374;52.746;6.304;2023-02-20T09:14:55;8.70;99.90
59556;DHT22;45374;52.746;6.304;2023-02-20T09:17:21;8.70;99.90
59556;DHT22;45374;52.746;6.304;2023-02-20T09:19:46;8.70;99.90
59556;DHT22;45374;52.746;6.304;2023-02-20T09:22:12;8.70;99.90
59556;DHT22;45374;52.746;6.304;2023-02-20T09:24:37;8.70;99.90
59556;DHT22;45374;52.746;6.304;2023-02-20T09:27:04;8.70;99.90
59556;DHT22;45374;52.746;6.304;2023-02-20T09:29:33;8.60;99.90
59556;DHT22;45374;52.746;6.304;2023-02-20T09:32:01;8.70;99.90
59556;DHT22;45374;52.746;6.304;2023-02-20T09:34:26;8.70;99.90
59556;DHT22;45374;52.746;6.304;2023-02-20T09:36:52;8.80;99.90
59556;DHT22;45374;52.746;6.304;2023-02-20T09:39:18;8.80;99.90
59556;DHT22;45374;52.746;6.304;2023-02-20T09:45:09;8.80;99.90
59556;DHT22;45374;52.746;6.304;2023-02-20T09:47:54;8.80;99.90
59556;DHT22;45374;52.746;6.304;2023-02-20T09:50:36;8.80;99.90
59556;DHT22;45374;52.746;6.304;2023-02-20T09:53:30;8.80;99.90
59556;DHT22;45374;52.746;6.304;2023-02-20T09:55:58;8.70;99.90
59556;DHT22;45374;52.746;6.304;2023-02-20T09:58:32;8.80;99.90
59556;DHT22;45374;52.746;6.304;2023-02-20T10:01:02;8.80;99.90
59556;DHT22;45374;52.746;6.304;2023-02-20T10:06:15;8.80;99.90
59556;DHT22;45374;52.746;6.304;2023-02-20T10:08:41;8.80;99.90
59556;DHT22;45374;52.746;6.304;2023-02-20T10:11:10;8.80;99.90
59556;DHT22;45374;52.746;6.304;2023-02-20T10:17:12;8.90;99.90
59556;DHT22;45374;52.746;6.304;2023-02-20T10:19:38;8.90;99.90
59556;DHT22;45374;52.746;6.304;2023-02-20T10:22:29;8.90;99.90
59556;DHT22;45374;52.746;6.304;2023-02-20T10:30:01;8.90;99.90
59556;DHT22;45374;52.746;6.304;2023-02-20T10:32:37;8.90;99.90
59556;DHT22;45374;52.746;6.304;2023-02-20T10:35:08;8.90;99.90
59556;DHT22;45374;52.746;6.304;2023-02-20T10:37:39;8.90;99.90
59556;DHT22;45374;52.746;6.304;2023-02-20T10:40:50;9.00;99.90
59556;DHT22;45374;52.746;6.304;2023-02-20T10:43:11;9.00;99.90
59556;DHT22;45374;52.746;6.304;2023-02-20T10:45:48;9.00;99.90
59556;DHT22;45374;52.746;6.304;2023-02-20T10:48:16;9.00;99.90
59556;DHT22;45374;52.746;6.304;2023-02-20T10:53:47;9.00;99.90
59556;DHT22;45374;52.746;6.304;2023-02-20T10:56:26;9.00;99.90
59556;DHT22;45374;52.746;6.304;2023-02-20T10:59:20;9.10;99.90
59556;DHT22;45374;52.746;6.304;2023-02-20T11:01:51;9.10;99.90
59556;DHT22;45374;52.746;6.304;2023-02-20T11:09:17;9.10;99.90
59556;DHT22;45374;52.746;6.304;2023-02-20T11:11:45;9.20;99.90
59556;DHT22;45374;52.746;6.304;2023-02-20T11:14:15;9.30;99.90
59556;DHT22;45374;52.746;6.304;2023-02-20T11:16:53;9.30;99.90
59556;DHT22;45374;52.746;6.304;2023-02-20T11:19:29;9.30;99.90
59556;DHT22;45374;52.746;6.304;2023-02-20T11:21:57;9.30;99.90
59556;DHT22;45374;52.746;6.304;2023-02-20T11:26:56;9.30;99.90
59556;DHT22;45374;52.746;6.304;2023-02-20T11:29:23;9.40;99.90
59556;DHT22;45374;52.746;6.304;2023-02-20T11:31:49;9.40;99.90
59556;DHT22;45374;52.746;6.304;2023-02-20T11:34:19;9.40;99.90
59556;DHT22;45374;52.746;6.304;2023-02-20T11:36:50;9.40;99.90
59556;DHT22;45374;52.746;6.304;2023-02-20T11:39:28;9.40;99.90
59556;DHT22;45374;52.746;6.304;2023-02-20T11:42:20;9.40;99.90
59556;DHT22;45374;52.746;6.304;2023-02-20T11:47:36;9.40;99.90
59556;DHT22;45374;52.746;6.304;2023-02-20T11:52:37;9.50;99.90
59556;DHT22;45374;52.746;6.304;2023-02-20T11:55:19;9.50;99.90
59556;DHT22;45374;52.746;6.304;2023-02-20T11:57:47;9.40;99.90
59556;DHT22;45374;52.746;6.304;2023-02-20T12:02:55;9.40;99.90
59556;DHT22;45374;52.746;6.304;2023-02-20T12:05:39;9.50;99.90
59556;DHT22;45374;52.746;6.304;2023-02-20T12:08:31;9.50;99.90
59556;DHT22;45374;52.746;6.304;2023-02-20T12:11:05;9.50;99.90
59556;DHT22;45374;52.746;6.304;2023-02-20T12:13:39;9.50;99.90
59556;DHT22;45374;52.746;6.304;2023-02-20T12:18:57;9.50;99.90
59556;DHT22;45374;52.746;6.304;2023-02-20T12:27:00;9.50;99.90
59556;DHT22;45374;52.746;6.304;2023-02-20T12:35:13;9.60;99.90
59556;DHT22;45374;52.746;6.304;2023-02-20T12:42:58;9.50;99.90
59556;DHT22;45374;52.746;6.304;2023-02-20T12:45:51;9.50;99.90
59556;DHT22;45374;52.746;6.304;2023-02-20T12:51:20;9.50;99.90
59556;DHT22;45374;52.746;6.304;2023-02-20T12:57:13;9.50;99.90
59556;DHT22;45374;52.746;6.304;2023-02-20T13:04:56;9.60;99.90
59556;DHT22;45374;52.746;6.304;2023-02-20T13:07:45;9.50;99.90
59556;DHT22;45374;52.746;6.304;2023-02-20T13:10:24;9.50;99.90
59556;DHT22;45374;52.746;6.304;2023-02-20T13:12:51;9.60;99.90
59556;DHT22;45374;52.746;6.304;2023-02-20T13:15:32;9.50;99.90
59556;DHT22;45374;52.746;6.304;2023-02-20T13:20:30;9.60;99.90
59556;DHT22;45374;52.746;6.304;2023-02-20T13:25:45;9.60;99.90
59556;DHT22;45374;52.746;6.304;2023-02-20T13:30:36;9.60;99.90
59556;DHT22;45374;52.746;6.304;2023-02-20T13:33:29;9.70;99.90
59556;DHT22;45374;52.746;6.304;2023-02-20T13:35:58;9.80;99.90
59556;DHT22;45374;52.746;6.304;2023-02-20T13:38:25;9.70;99.90
59556;DHT22;45374;52.746;6.304;2023-02-20T13:43:26;9.80;99.90
59556;DHT22;45374;52.746;6.304;2023-02-20T13:48:39;9.80;99.90
59556;DHT22;45374;52.746;6.304;2023-02-20T13:53:53;9.80;99.90
59556;DHT22;45374;52.746;6.304;2023-02-20T13:56:48;9.80;99.90
59556;DHT22;45374;52.746;6.304;2023-02-20T13:59:15;9.80;99.90
59556;DHT22;45374;52.746;6.304;2023-02-20T14:02:03;9.80;99.90
59556;DHT22;45374;52.746;6.304;2023-02-20T14:04:29;9.80;99.90
59556;DHT22;45374;52.746;6.304;2023-02-20T14:06:55;9.80;99.90
59556;DHT22;45374;52.746;6.304;2023-02-20T14:09:24;9.80;99.90
59556;DHT22;45374;52.746;6.304;2023-02-20T14:11:53;9.70;99.90
59556;DHT22;45374;52.746;6.304;2023-02-20T14:14:26;9.80;99.90
59556;DHT22;45374;52.746;6.304;2023-02-20T14:19:40;9.80;99.90
59556;DHT22;45374;52.746;6.304;2023-02-20T14:22:23;9.70;99.90
59556;DHT22;45374;52.746;6.304;2023-02-20T14:27:38;9.70;99.90
59556;DHT22;45374;52.746;6.304;2023-02-20T14:30:05;9.80;99.90
59556;DHT22;45374;52.746;6.304;2023-02-20T14:32:31;9.70;99.90
59556;DHT22;45374;52.746;6.304;2023-02-20T14:40:17;9.70;99.90
59556;DHT22;45374;52.746;6.304;2023-02-20T14:42:46;9.70;99.90
59556;DHT22;45374;52.746;6.304;2023-02-20T14:45:20;9.70;99.90
59556;DHT22;45374;52.746;6.304;2023-02-20T14:47:57;9.70;99.90
59556;DHT22;45374;52.746;6.304;2023-02-20T14:50:27;9.70;99.90
59556;DHT22;45374;52.746;6.304;2023-02-20T14:53:16;9.70;99.90
59556;DHT22;45374;52.746;6.304;2023-02-20T14:55:42;9.60;99.90
59556;DHT22;45374;52.746;6.304;2023-02-20T14:58:18;9.60;99.90
59556;DHT22;45374;52.746;6.304;2023-02-20T15:00:45;9.70;99.90
59556;DHT22;45374;52.746;6.304;2023-02-20T15:03:28;9.60;99.90
59556;DHT22;45374;52.746;6.304;2023-02-20T15:05:58;9.60;99.90
59556;DHT22;45374;52.746;6.304;2023-02-20T15:08:33;9.60;99.90
59556;DHT22;45374;52.746;6.304;2023-02-20T15:11:11;9.60;99.90
59556;DHT22;45374;52.746;6.304;2023-02-20T15:13:40;9.60;99.90
59556;DHT22;45374;52.746;6.304;2023-02-20T15:18:40;9.50;99.90
59556;DHT22;45374;52.746;6.304;2023-02-20T15:21:06;9.60;99.90
59556;DHT22;45374;52.746;6.304;2023-02-20T15:23:35;9.60;99.90
59556;DHT22;45374;52.746;6.304;2023-02-20T15:26:28;9.50;99.90
59556;DHT22;45374;52.746;6.304;2023-02-20T15:31:53;9.50;99.90
59556;DHT22;45374;52.746;6.304;2023-02-20T15:34:26;9.60;99.90
59556;DHT22;45374;52.746;6.304;2023-02-20T15:36:52;9.50;99.90
59556;DHT22;45374;52.746;6.304;2023-02-20T15:39:18;9.60;99.90
59556;DHT22;45374;52.746;6.304;2023-02-20T15:41:45;9.50;99.90
59556;DHT22;45374;52.746;6.304;2023-02-20T15:44:11;9.50;99.90
59556;DHT22;45374;52.746;6.304;2023-02-20T15:46:37;9.40;99.90
59556;DHT22;45374;52.746;6.304;2023-02-20T15:49:03;9.40;99.90
59556;DHT22;45374;52.746;6.304;2023-02-20T15:51:31;9.40;99.90
59556;DHT22;45374;52.746;6.304;2023-02-20T15:53:58;9.40;99.90
59556;DHT22;45374;52.746;6.304;2023-02-20T15:56:26;9.40;99.90
59556;DHT22;45374;52.746;6.304;2023-02-20T15:58:53;9.40;99.90
59556;DHT22;45374;52.746;6.304;2023-02-20T16:01:19;9.30;99.90
59556;DHT22;45374;52.746;6.304;2023-02-20T16:03:44;9.30;99.90
59556;DHT22;45374;52.746;6.304;2023-02-20T16:06:13;9.30;99.90
59556;DHT22;45374;52.746;6.304;2023-02-20T16:08:38;9.20;99.90
59556;DHT22;45374;52.746;6.304;2023-02-20T16:11:04;9.30;99.90
59556;DHT22;45374;52.746;6.304;2023-02-20T16:13:37;9.20;99.90
59556;DHT22;45374;52.746;6.304;2023-02-20T16:16:17;9.20;99.90
59556;DHT22;45374;52.746;6.304;2023-02-20T16:18:43;9.20;99.90
59556;DHT22;45374;52.746;6.304;2023-02-20T16:21:12;9.20;99.90
59556;DHT22;45374;52.746;6.304;2023-02-20T16:23:38;9.10;99.90
59556;DHT22;45374;52.746;6.304;2023-02-20T16:26:06;9.10;99.90
59556;DHT22;45374;52.746;6.304;2023-02-20T16:28:32;9.10;99.90
59556;DHT22;45374;52.746;6.304;2023-02-20T16:30:58;9.10;99.90
59556;DHT22;45374;52.746;6.304;2023-02-20T16:33:24;9.10;99.90
59556;DHT22;45374;52.746;6.304;2023-02-20T16:35:51;9.10;99.90
59556;DHT22;45374;52.746;6.304;2023-02-20T16:38:17;9.10;99.90
59556;DHT22;45374;52.746;6.304;2023-02-20T16:40:43;9.10;99.90
59556;DHT22;45374;52.746;6.304;2023-02-20T16:43:11;9.10;99.90
59556;DHT22;45374;52.746;6.304;2023-02-20T16:45:38;9.10;99.90
59556;DHT22;45374;52.746;6.304;2023-02-20T16:48:12;9.00;99.90
59556;DHT22;45374;52.746;6.304;2023-02-20T16:50:39;9.00;99.90
59556;DHT22;45374;52.746;6.304;2023-02-20T16:53:04;9.00;99.90
59556;DHT22;45374;52.746;6.304;2023-02-20T16:55:37;9.00;99.90
59556;DHT22;45374;52.746;6.304;2023-02-20T16:58:04;9.00;99.90
59556;DHT22;45374;52.746;6.304;2023-02-20T17:00:35;8.90;99.90
59556;DHT22;45374;52.746;6.304;2023-02-20T17:03:01;9.00;99.90
59556;DHT22;45374;52.746;6.304;2023-02-20T17:05:30;8.90;99.90
59556;DHT22;45374;52.746;6.304;2023-02-20T17:07:56;8.90;99.90
59556;DHT22;45374;52.746;6.304;2023-02-20T17:10:23;8.90;99.90
59556;DHT22;45374;52.746;6.304;2023-02-20T17:12:49;8.90;99.90
59556;DHT22;45374;52.746;6.304;2023-02-20T17:15:16;8.90;99.90
59556;DHT22;45374;52.746;6.304;2023-02-20T17:17:43;8.90;99.90
59556;DHT22;45374;52.746;6.304;2023-02-20T17:20:14;8.80;99.90
59556;DHT22;45374;52.746;6.304;2023-02-20T17:22:39;8.90;99.90
59556;DHT22;45374;52.746;6.304;2023-02-20T17:25:07;8.80;99.90
59556;DHT22;45374;52.746;6.304;2023-02-20T17:27:33;8.80;99.90
59556;DHT22;45374;52.746;6.304;2023-02-20T17:29:58;8.80;99.90
59556;DHT22;45374;52.746;6.304;2023-02-20T17:32:24;8.80;99.90
59556;DHT22;45374;52.746;6.304;2023-02-20T17:34:50;8.80;99.90
59556;DHT22;45374;52.746;6.304;2023-02-20T17:37:15;8.80;99.90
59556;DHT22;45374;52.746;6.304;2023-02-20T17:39:41;8.80;99.90
59556;DHT22;45374;52.746;6.304;2023-02-20T17:42:06;8.80;99.90
59556;DHT22;45374;52.746;6.304;2023-02-20T17:44:32;8.80;99.90
59556;DHT22;45374;52.746;6.304;2023-02-20T17:46:59;8.80;99.90
59556;DHT22;45374;52.746;6.304;2023-02-20T17:49:25;8.80;99.90
59556;DHT22;45374;52.746;6.304;2023-02-20T17:51:53;8.80;99.90
59556;DHT22;45374;52.746;6.304;2023-02-20T17:54:27;8.80;99.90
59556;DHT22;45374;52.746;6.304;2023-02-20T17:56:54;8.80;99.90
59556;DHT22;45374;52.746;6.304;2023-02-20T17:59:20;8.80;99.90
59556;DHT22;45374;52.746;6.304;2023-02-20T18:01:48;8.70;99.90
59556;DHT22;45374;52.746;6.304;2023-02-20T18:04:14;8.70;99.90